sensor_id;sensor_type;location;lat;lon;timestamp;pressure;altitude;pressure_sealevel;temperature
74043;BMP280;62384;53.600;10.040;2023-07-16T00:00:00;69169.94;;;20.35
74043;BMP280;62384;53.600;10.040;2023-07-16T00:02:26;68122.75;;;20.32
74043;BMP280;62384;53.600;10.040;2023-07-16T00:04:51;65571.91;;;20.16
74043;BMP280;62384;53.600;10.040;2023-07-16T00:07:17;65423.38;;;19.93
74043;BMP280;62384;53.600;10.040;2023-07-16T00:09:43;63353.00;;;19.89
74043;BMP280;62384;53.600;10.040;2023-07-16T00:12:08;62686.75;;;19.81
74043;BMP280;62384;53.600;10.040;2023-07-16T00:14:34;63540.13;;;19.79
74043;BMP280;62384;53.600;10.040;2023-07-16T00:16:59;62255.16;;;19.70
74043;BMP280;62384;53.600;10.040;2023-07-16T00:19:24;61444.81;;;19.72
74043;BMP280;62384;53.600;10.040;2023-07-16T00:21:50;61540.25;;;19.70
74043;BMP280;62384;53.600;10.040;2023-07-16T00:24:15;60727.84;;;19.72
74043;BMP280;62384;53.600;10.040;2023-07-16T00:26:40;60626.75;;;19.67
74043;BMP280;62384;53.600;10.040;2023-07-16T00:29:06;59042.53;;;19.61
74043;BMP280;62384;53.600;10.040;2023-07-16T00:31:31;58145.59;;;19.61
74043;BMP280;62384;53.600;10.040;2023-07-16T00:33:56;57932.78;;;19.66
74043;BMP280;62384;53.600;10.040;2023-07-16T00:36:21;57409.91;;;19.67
74043;BMP280;62384;53.600;10.040;2023-07-16T00:38:47;57332.69;;;19.71
74043;BMP280;62384;53.600;10.040;2023-07-16T00:41:15;57532.31;;;19.75
74043;BMP280;62384;53.600;10.040;2023-07-16T00:43:40;57483.00;;;19.64
74043;BMP280;62384;53.600;10.040;2023-07-16T00:46:07;56368.22;;;19.66
74043;BMP280;62384;53.600;10.040;2023-07-16T00:48:33;56838.59;;;19.70
74043;BMP280;62384;53.600;10.040;2023-07-16T00:51:00;58364.50;;;19.66
74043;BMP280;62384;53.600;10.040;2023-07-16T00:53:26;58314.97;;;19.71
74043;BMP280;62384;53.600;10.040;2023-07-16T00:55:51;57310.44;;;19.70
74043;BMP280;62384;53.600;10.040;2023-07-16T00:58:17;57742.88;;;19.70
74043;BMP280;62384;53.600;10.040;2023-07-16T01:00:42;59111.78;;;19.73
74043;BMP280;62384;53.600;10.040;2023-07-16T01:03:10;59159.84;;;19.70
74043;BMP280;62384;53.600;10.040;2023-07-16T01:05:47;59109.41;;;19.77
74043;BMP280;62384;53.600;10.040;2023-07-16T01:08:20;58340.66;;;19.76
74043;BMP280;62384;53.600;10.040;2023-07-16T01:10:46;58793.81;;;19.78
74043;BMP280;62384;53.600;10.040;2023-07-16T01:13:13;59971.53;;;19.77
74043;BMP280;62384;53.600;10.040;2023-07-16T01:15:38;60287.47;;;19.82
74043;BMP280;62384;53.600;10.040;2023-07-16T01:18:05;61266.53;;;19.77
74043;BMP280;62384;53.600;10.040;2023-07-16T01:20:30;61592.13;;;19.87
74043;BMP280;62384;53.600;10.040;2023-07-16T01:26:30;57921.34;;;19.85
74043;BMP280;62384;53.600;10.040;2023-07-16T01:29:12;60394.59;;;19.78
74043;BMP280;62384;53.600;10.040;2023-07-16T01:31:45;60948.59;;;19.73
74043;BMP280;62384;53.600;10.040;2023-07-16T01:34:11;61770.00;;;19.72
74043;BMP280;62384;53.600;10.040;2023-07-16T01:36:38;62449.66;;;19.77
74043;BMP280;62384;53.600;10.040;2023-07-16T01:39:05;64566.00;;;19.80
74043;BMP280;62384;53.600;10.040;2023-07-16T01:41:30;64915.19;;;19.76
74043;BMP280;62384;53.600;10.040;2023-07-16T01:43:56;64066.56;;;19.69
74043;BMP280;62384;53.600;10.040;2023-07-16T01:46:21;63880.31;;;19.77
74043;BMP280;62384;53.600;10.040;2023-07-16T01:48:46;65476.03;;;19.80
74043;BMP280;62384;53.600;10.040;2023-07-16T01:51:12;64952.34;;;19.85
74043;BMP280;62384;53.600;10.040;2023-07-16T01:53:39;66733.75;;;19.87
74043;BMP280;62384;53.600;10.040;2023-07-16T01:56:05;66524.25;;;19.76
74043;BMP280;62384;53.600;10.040;2023-07-16T01:58:30;68438.13;;;19.75
74043;BMP280;62384;53.600;10.040;2023-07-16T02:00:55;68849.03;;;19.79
74043;BMP280;62384;53.600;10.040;2023-07-16T02:03:21;70065.06;;;19.79
74043;BMP280;62384;53.600;10.040;2023-07-16T02:05:47;69533.41;;;19.82
74043;BMP280;62384;53.600;10.040;2023-07-16T02:08:12;69452.03;;;19.81
74043;BMP280;62384;53.600;10.040;2023-07-16T02:10:38;70190.75;;;19.78
74043;BMP280;62384;53.600;10.040;2023-07-16T02:13:03;69648.41;;;19.78
74043;BMP280;62384;53.600;10.040;2023-07-16T02:15:28;70944.22;;;19.74
74043;BMP280;62384;53.600;10.040;2023-07-16T02:17:53;71379.28;;;19.80
74043;BMP280;62384;53.600;10.040;2023-07-16T02:20:19;71253.69;;;19.79
74043;BMP280;62384;53.600;10.040;2023-07-16T02:22:44;71610.28;;;19.77
74043;BMP280;62384;53.600;10.040;2023-07-16T02:25:09;71160.56;;;19.72
74043;BMP280;62384;53.600;10.040;2023-07-16T02:27:35;71154.03;;;19.74
74043;BMP280;62384;53.600;10.040;2023-07-16T02:30:00;70760.97;;;19.72
74043;BMP280;62384;53.600;10.040;2023-07-16T02:32:25;70893.69;;;19.70
74043;BMP280;62384;53.600;10.040;2023-07-16T02:34:50;70543.41;;;19.65
74043;BMP280;62384;53.600;10.040;2023-07-16T02:37:16;70380.63;;;19.64
74043;BMP280;62384;53.600;10.040;2023-07-16T02:39:42;71126.31;;;19.63
74043;BMP280;62384;53.600;10.040;2023-07-16T02:42:08;71433.03;;;19.67
74043;BMP280;62384;53.600;10.040;2023-07-16T02:44:34;71255.66;;;19.65
74043;BMP280;62384;53.600;10.040;2023-07-16T02:47:03;70997.78;;;19.69
74043;BMP280;62384;53.600;10.040;2023-07-16T02:49:29;71202.72;;;19.69
74043;BMP280;62384;53.600;10.040;2023-07-16T02:51:54;71285.13;;;19.73
74043;BMP280;62384;53.600;10.040;2023-07-16T02:54:19;70985.38;;;19.70
74043;BMP280;62384;53.600;10.040;2023-07-16T02:56:44;70834.03;;;19.64
74043;BMP280;62384;53.600;10.040;2023-07-16T02:59:09;70935.88;;;19.66
74043;BMP280;62384;53.600;10.040;2023-07-16T03:01:35;71012.25;;;19.72
74043;BMP280;62384;53.600;10.040;2023-07-16T03:04:00;71032.69;;;19.74
74043;BMP280;62384;53.600;10.040;2023-07-16T03:06:25;70718.34;;;19.72
74043;BMP280;62384;53.600;10.040;2023-07-16T03:08:51;70562.69;;;19.68
74043;BMP280;62384;53.600;10.040;2023-07-16T03:11:16;71067.97;;;19.66
74043;BMP280;62384;53.600;10.040;2023-07-16T03:13:41;71561.91;;;19.69
74043;BMP280;62384;53.600;10.040;2023-07-16T03:16:06;71274.00;;;19.65
74043;BMP280;62384;53.600;10.040;2023-07-16T03:18:32;71225.47;;;19.65
74043;BMP280;62384;53.600;10.040;2023-07-16T03:20:57;71450.88;;;19.66
74043;BMP280;62384;53.600;10.040;2023-07-16T03:23:23;71714.50;;;19.71
74043;BMP280;62384;53.600;10.040;2023-07-16T03:25:49;71602.19;;;19.77
74043;BMP280;62384;53.600;10.040;2023-07-16T03:28:15;71460.88;;;19.76
74043;BMP280;62384;53.600;10.040;2023-07-16T03:30:40;71576.84;;;19.76
74043;BMP280;62384;53.600;10.040;2023-07-16T03:33:05;71535.47;;;19.70
74043;BMP280;62384;53.600;10.040;2023-07-16T03:35:30;71475.00;;;19.71
74043;BMP280;62384;53.600;10.040;2023-07-16T03:37:56;71907.13;;;19.69
74043;BMP280;62384;53.600;10.040;2023-07-16T03:40:24;72302.50;;;19.71
74043;BMP280;62384;53.600;10.040;2023-07-16T03:42:50;72496.22;;;19.70
74043;BMP280;62384;53.600;10.040;2023-07-16T03:45:15;72172.00;;;19.70
74043;BMP280;62384;53.600;10.040;2023-07-16T03:47:40;72106.25;;;19.64
74043;BMP280;62384;53.600;10.040;2023-07-16T03:50:08;72147.25;;;19.62
74043;BMP280;62384;53.600;10.040;2023-07-16T03:52:34;72473.59;;;19.67
74043;BMP280;62384;53.600;10.040;2023-07-16T03:54:59;72658.69;;;19.61
74043;BMP280;62384;53.600;10.040;2023-07-16T03:57:25;72655.47;;;19.60
74043;BMP280;62384;53.600;10.040;2023-07-16T03:59:50;72866.94;;;19.54
74043;BMP280;62384;53.600;10.040;2023-07-16T04:02:15;72679.22;;;19.52
74043;BMP280;62384;53.600;10.040;2023-07-16T04:04:40;72654.97;;;19.50
74043;BMP280;62384;53.600;10.040;2023-07-16T04:07:06;72783.88;;;19.52
74043;BMP280;62384;53.600;10.040;2023-07-16T04:09:31;72753.66;;;19.49
74043;BMP280;62384;53.600;10.040;2023-07-16T04:11:56;72674.91;;;19.53
74043;BMP280;62384;53.600;10.040;2023-07-16T04:14:22;72651.69;;;19.54
74043;BMP280;62384;53.600;10.040;2023-07-16T04:16:47;72390.13;;;19.52
74043;BMP280;62384;53.600;10.040;2023-07-16T04:19:12;72309.84;;;19.42
74043;BMP280;62384;53.600;10.040;2023-07-16T04:21:38;72071.94;;;19.49
74043;BMP280;62384;53.600;10.040;2023-07-16T04:24:05;71890.69;;;19.51
74043;BMP280;62384;53.600;10.040;2023-07-16T04:26:31;71765.66;;;19.48
74043;BMP280;62384;53.600;10.040;2023-07-16T04:28:56;71783.97;;;19.50
74043;BMP280;62384;53.600;10.040;2023-07-16T04:31:22;71559.06;;;19.51
74043;BMP280;62384;53.600;10.040;2023-07-16T04:33:47;71624.84;;;19.52
74043;BMP280;62384;53.600;10.040;2023-07-16T04:36:12;71694.84;;;19.57
74043;BMP280;62384;53.600;10.040;2023-07-16T04:38:38;71354.50;;;19.59
74043;BMP280;62384;53.600;10.040;2023-07-16T04:41:03;71681.19;;;19.65
74043;BMP280;62384;53.600;10.040;2023-07-16T04:43:28;71871.97;;;19.74
74043;BMP280;62384;53.600;10.040;2023-07-16T04:45:53;71951.28;;;19.73
74043;BMP280;62384;53.600;10.040;2023-07-16T04:48:19;71860.97;;;19.85
74043;BMP280;62384;53.600;10.040;2023-07-16T04:50:44;72400.22;;;19.66
74043;BMP280;62384;53.600;10.040;2023-07-16T04:53:09;72272.69;;;19.86
74043;BMP280;62384;53.600;10.040;2023-07-16T04:55:38;72232.09;;;19.94
74043;BMP280;62384;53.600;10.040;2023-07-16T04:58:04;72699.53;;;19.92
74043;BMP280;62384;53.600;10.040;2023-07-16T05:00:31;72981.81;;;19.88
74043;BMP280;62384;53.600;10.040;2023-07-16T05:02:57;73047.16;;;19.91
74043;BMP280;62384;53.600;10.040;2023-07-16T05:05:22;72986.16;;;19.92
74043;BMP280;62384;53.600;10.040;2023-07-16T05:07:47;73011.53;;;19.96
74043;BMP280;62384;53.600;10.040;2023-07-16T05:10:12;73267.97;;;19.96
74043;BMP280;62384;53.600;10.040;2023-07-16T05:12:38;73314.94;;;19.97
74043;BMP280;62384;53.600;10.040;2023-07-16T05:15:03;73293.91;;;20.02
74043;BMP280;62384;53.600;10.040;2023-07-16T05:17:29;73406.81;;;20.09
74043;BMP280;62384;53.600;10.040;2023-07-16T05:19:54;73918.41;;;20.20
74043;BMP280;62384;53.600;10.040;2023-07-16T05:22:19;73776.94;;;20.27
74043;BMP280;62384;53.600;10.040;2023-07-16T05:24:44;73930.97;;;20.29
74043;BMP280;62384;53.600;10.040;2023-07-16T05:27:10;73789.88;;;20.24
74043;BMP280;62384;53.600;10.040;2023-07-16T05:29:35;73761.25;;;20.22
74043;BMP280;62384;53.600;10.040;2023-07-16T05:32:00;73578.13;;;20.25
74043;BMP280;62384;53.600;10.040;2023-07-16T05:34:26;73358.28;;;20.29
74043;BMP280;62384;53.600;10.040;2023-07-16T05:36:53;73590.56;;;20.27
74043;BMP280;62384;53.600;10.040;2023-07-16T05:39:19;73720.81;;;20.32
74043;BMP280;62384;53.600;10.040;2023-07-16T05:41:44;73669.50;;;20.32
74043;BMP280;62384;53.600;10.040;2023-07-16T05:44:10;73643.59;;;20.38
74043;BMP280;62384;53.600;10.040;2023-07-16T05:46:35;74038.50;;;20.29
74043;BMP280;62384;53.600;10.040;2023-07-16T05:49:00;73878.63;;;20.36
74043;BMP280;62384;53.600;10.040;2023-07-16T05:51:25;74050.63;;;20.45
74043;BMP280;62384;53.600;10.040;2023-07-16T05:53:51;74296.09;;;20.49
74043;BMP280;62384;53.600;10.040;2023-07-16T05:56:16;74548.22;;;20.60
74043;BMP280;62384;53.600;10.040;2023-07-16T05:58:41;74788.06;;;20.71
74043;BMP280;62384;53.600;10.040;2023-07-16T06:01:08;74942.34;;;20.76
74043;BMP280;62384;53.600;10.040;2023-07-16T06:03:34;74928.34;;;20.78
74043;BMP280;62384;53.600;10.040;2023-07-16T06:05:59;75027.78;;;20.75
74043;BMP280;62384;53.600;10.040;2023-07-16T06:08:24;75305.59;;;20.85
74043;BMP280;62384;53.600;10.040;2023-07-16T06:10:50;75605.44;;;20.87
74043;BMP280;62384;53.600;10.040;2023-07-16T06:13:16;75624.84;;;20.85
74043;BMP280;62384;53.600;10.040;2023-07-16T06:15:41;76019.34;;;20.84
74043;BMP280;62384;53.600;10.040;2023-07-16T06:18:07;75997.91;;;20.89
74043;BMP280;62384;53.600;10.040;2023-07-16T06:20:32;76008.72;;;21.01
74043;BMP280;62384;53.600;10.040;2023-07-16T06:22:57;76193.59;;;21.07
74043;BMP280;62384;53.600;10.040;2023-07-16T06:25:23;76346.50;;;21.01
74043;BMP280;62384;53.600;10.040;2023-07-16T06:27:48;76343.28;;;21.12
74043;BMP280;62384;53.600;10.040;2023-07-16T06:30:13;76314.06;;;21.13
74043;BMP280;62384;53.600;10.040;2023-07-16T06:32:39;76551.22;;;21.12
74043;BMP280;62384;53.600;10.040;2023-07-16T06:35:04;76383.97;;;21.24
74043;BMP280;62384;53.600;10.040;2023-07-16T06:37:29;76495.41;;;21.32
74043;BMP280;62384;53.600;10.040;2023-07-16T06:39:55;76698.81;;;21.27
74043;BMP280;62384;53.600;10.040;2023-07-16T06:42:20;76895.41;;;21.26
74043;BMP280;62384;53.600;10.040;2023-07-16T06:44:45;77009.31;;;21.29
74043;BMP280;62384;53.600;10.040;2023-07-16T06:47:10;77006.78;;;21.31
74043;BMP280;62384;53.600;10.040;2023-07-16T06:49:36;76941.03;;;21.38
74043;BMP280;62384;53.600;10.040;2023-07-16T06:52:01;76931.06;;;21.53
74043;BMP280;62384;53.600;10.040;2023-07-16T06:54:29;76984.56;;;21.59
74043;BMP280;62384;53.600;10.040;2023-07-16T06:56:54;76998.22;;;21.52
74043;BMP280;62384;53.600;10.040;2023-07-16T06:59:19;76973.56;;;21.47
74043;BMP280;62384;53.600;10.040;2023-07-16T07:01:45;77072.69;;;21.56
74043;BMP280;62384;53.600;10.040;2023-07-16T07:04:10;77180.00;;;21.64
74043;BMP280;62384;53.600;10.040;2023-07-16T07:06:36;77338.13;;;21.53
74043;BMP280;62384;53.600;10.040;2023-07-16T07:09:01;77360.72;;;21.59
74043;BMP280;62384;53.600;10.040;2023-07-16T07:11:26;77369.50;;;21.52
74043;BMP280;62384;53.600;10.040;2023-07-16T07:13:52;77352.03;;;21.42
74043;BMP280;62384;53.600;10.040;2023-07-16T07:16:18;77417.53;;;21.66
74043;BMP280;62384;53.600;10.040;2023-07-16T07:18:43;77399.16;;;21.66
74043;BMP280;62384;53.600;10.040;2023-07-16T07:21:08;77446.22;;;21.65
74043;BMP280;62384;53.600;10.040;2023-07-16T07:23:33;77414.38;;;21.58
74043;BMP280;62384;53.600;10.040;2023-07-16T07:25:59;77466.69;;;21.54
74043;BMP280;62384;53.600;10.040;2023-07-16T07:28:25;77479.81;;;21.56
74043;BMP280;62384;53.600;10.040;2023-07-16T07:30:50;77479.72;;;21.80
74043;BMP280;62384;53.600;10.040;2023-07-16T07:33:16;77455.38;;;21.90
74043;BMP280;62384;53.600;10.040;2023-07-16T07:35:41;77421.47;;;21.60
74043;BMP280;62384;53.600;10.040;2023-07-16T07:38:06;77388.66;;;21.55
74043;BMP280;62384;53.600;10.040;2023-07-16T07:40:32;77462.00;;;21.74
74043;BMP280;62384;53.600;10.040;2023-07-16T07:42:57;77553.03;;;21.90
74043;BMP280;62384;53.600;10.040;2023-07-16T07:45:23;77521.53;;;21.64
74043;BMP280;62384;53.600;10.040;2023-07-16T07:47:49;77510.34;;;21.76
74043;BMP280;62384;53.600;10.040;2023-07-16T07:50:14;77510.88;;;21.67
74043;BMP280;62384;53.600;10.040;2023-07-16T07:52:40;77495.50;;;21.89
74043;BMP280;62384;53.600;10.040;2023-07-16T07:55:05;77470.75;;;21.84
74043;BMP280;62384;53.600;10.040;2023-07-16T07:57:31;77505.09;;;21.95
74043;BMP280;62384;53.600;10.040;2023-07-16T07:59:56;77515.13;;;21.99
74043;BMP280;62384;53.600;10.040;2023-07-16T08:02:25;77580.78;;;21.66
74043;BMP280;62384;53.600;10.040;2023-07-16T08:04:52;77547.59;;;21.73
74043;BMP280;62384;53.600;10.040;2023-07-16T08:07:17;77512.03;;;21.84
74043;BMP280;62384;53.600;10.040;2023-07-16T08:09:43;77537.75;;;22.05
74043;BMP280;62384;53.600;10.040;2023-07-16T08:12:08;77556.22;;;21.97
74043;BMP280;62384;53.600;10.040;2023-07-16T08:14:34;77599.78;;;22.00
74043;BMP280;62384;53.600;10.040;2023-07-16T08:16:59;77655.47;;;22.29
74043;BMP280;62384;53.600;10.040;2023-07-16T08:19:24;77685.72;;;22.27
74043;BMP280;62384;53.600;10.040;2023-07-16T08:21:50;77710.94;;;22.07
74043;BMP280;62384;53.600;10.040;2023-07-16T08:24:15;77739.34;;;22.17
74043;BMP280;62384;53.600;10.040;2023-07-16T08:26:40;77737.75;;;22.18
74043;BMP280;62384;53.600;10.040;2023-07-16T08:29:05;77757.44;;;22.28
74043;BMP280;62384;53.600;10.040;2023-07-16T08:31:31;77763.84;;;22.27
74043;BMP280;62384;53.600;10.040;2023-07-16T08:33:56;77894.50;;;22.72
74043;BMP280;62384;53.600;10.040;2023-07-16T08:36:22;77904.09;;;22.61
74043;BMP280;62384;53.600;10.040;2023-07-16T08:38:47;77902.09;;;22.71
74043;BMP280;62384;53.600;10.040;2023-07-16T08:41:14;77924.59;;;22.91
74043;BMP280;62384;53.600;10.040;2023-07-16T08:43:39;77963.84;;;23.09
74043;BMP280;62384;53.600;10.040;2023-07-16T08:46:05;77994.59;;;22.97
74043;BMP280;62384;53.600;10.040;2023-07-16T08:48:30;78009.81;;;22.89
74043;BMP280;62384;53.600;10.040;2023-07-16T08:50:58;78049.56;;;23.22
74043;BMP280;62384;53.600;10.040;2023-07-16T08:53:26;78013.09;;;23.37
74043;BMP280;62384;53.600;10.040;2023-07-16T08:55:52;78032.38;;;23.33
74043;BMP280;62384;53.600;10.040;2023-07-16T08:58:17;78003.75;;;23.20
74043;BMP280;62384;53.600;10.040;2023-07-16T09:00:44;78112.41;;;23.74
74043;BMP280;62384;53.600;10.040;2023-07-16T09:03:12;78091.78;;;23.98
74043;BMP280;62384;53.600;10.040;2023-07-16T09:05:39;78053.59;;;23.49
74043;BMP280;62384;53.600;10.040;2023-07-16T09:08:05;78082.47;;;23.57
74043;BMP280;62384;53.600;10.040;2023-07-16T09:10:31;78009.25;;;23.13
74043;BMP280;62384;53.600;10.040;2023-07-16T09:12:58;77983.56;;;22.95
74043;BMP280;62384;53.600;10.040;2023-07-16T09:15:23;78022.69;;;23.10
74043;BMP280;62384;53.600;10.040;2023-07-16T09:17:49;78017.09;;;23.00
74043;BMP280;62384;53.600;10.040;2023-07-16T09:20:18;77979.88;;;22.73
74043;BMP280;62384;53.600;10.040;2023-07-16T09:22:44;78033.34;;;22.84
74043;BMP280;62384;53.600;10.040;2023-07-16T09:25:10;78109.84;;;23.36
74043;BMP280;62384;53.600;10.040;2023-07-16T09:27:36;78156.78;;;23.46
74043;BMP280;62384;53.600;10.040;2023-07-16T09:30:03;78222.06;;;23.93
74043;BMP280;62384;53.600;10.040;2023-07-16T09:32:37;78090.06;;;23.73
74043;BMP280;62384;53.600;10.040;2023-07-16T09:35:09;78099.94;;;23.58
74043;BMP280;62384;53.600;10.040;2023-07-16T09:37:37;78063.94;;;23.41
74043;BMP280;62384;53.600;10.040;2023-07-16T09:40:03;78024.81;;;23.10
74043;BMP280;62384;53.600;10.040;2023-07-16T09:42:29;78075.41;;;23.18
74043;BMP280;62384;53.600;10.040;2023-07-16T09:44:55;78040.47;;;23.16
74043;BMP280;62384;53.600;10.040;2023-07-16T09:47:21;78174.28;;;23.64
74043;BMP280;62384;53.600;10.040;2023-07-16T09:49:46;78115.56;;;23.72
74043;BMP280;62384;53.600;10.040;2023-07-16T09:52:12;78077.25;;;23.53
74043;BMP280;62384;53.600;10.040;2023-07-16T09:54:38;78060.38;;;23.29
74043;BMP280;62384;53.600;10.040;2023-07-16T09:57:06;78083.09;;;23.27
74043;BMP280;62384;53.600;10.040;2023-07-16T09:59:33;78055.53;;;23.29
74043;BMP280;62384;53.600;10.040;2023-07-16T10:01:59;78038.97;;;23.10
74043;BMP280;62384;53.600;10.040;2023-07-16T10:04:25;78003.34;;;22.98
74043;BMP280;62384;53.600;10.040;2023-07-16T10:06:54;78175.41;;;23.72
74043;BMP280;62384;53.600;10.040;2023-07-16T10:14:51;78089.75;;;23.45
74043;BMP280;62384;53.600;10.040;2023-07-16T10:17:20;78123.13;;;23.71
74043;BMP280;62384;53.600;10.040;2023-07-16T10:22:15;78175.56;;;23.98
74043;BMP280;62384;53.600;10.040;2023-07-16T10:24:40;78188.09;;;24.30
74043;BMP280;62384;53.600;10.040;2023-07-16T10:27:06;78201.41;;;24.25
74043;BMP280;62384;53.600;10.040;2023-07-16T10:29:32;78114.69;;;23.83
74043;BMP280;62384;53.600;10.040;2023-07-16T10:32:00;78310.53;;;24.91
74043;BMP280;62384;53.600;10.040;2023-07-16T10:34:26;78526.59;;;26.12
74043;BMP280;62384;53.600;10.040;2023-07-16T10:36:51;78728.06;;;27.39
74043;BMP280;62384;53.600;10.040;2023-07-16T10:39:17;78730.69;;;28.22
74043;BMP280;62384;53.600;10.040;2023-07-16T10:41:42;78428.94;;;26.06
74043;BMP280;62384;53.600;10.040;2023-07-16T10:44:08;78411.66;;;25.03
74043;BMP280;62384;53.600;10.040;2023-07-16T10:46:36;78591.38;;;26.33
74043;BMP280;62384;53.600;10.040;2023-07-16T10:49:01;78691.81;;;27.29
74043;BMP280;62384;53.600;10.040;2023-07-16T10:51:27;78657.44;;;27.73
74043;BMP280;62384;53.600;10.040;2023-07-16T10:53:55;78524.34;;;26.86
74043;BMP280;62384;53.600;10.040;2023-07-16T10:56:20;78415.19;;;25.80
74043;BMP280;62384;53.600;10.040;2023-07-16T10:58:45;78265.69;;;24.97
74043;BMP280;62384;53.600;10.040;2023-07-16T11:01:11;78388.44;;;25.07
74043;BMP280;62384;53.600;10.040;2023-07-16T11:03:36;78517.06;;;26.09
74043;BMP280;62384;53.600;10.040;2023-07-16T11:06:11;78455.50;;;26.36
74043;BMP280;62384;53.600;10.040;2023-07-16T11:08:40;78430.66;;;26.07
74043;BMP280;62384;53.600;10.040;2023-07-16T11:11:05;78424.81;;;25.53
74043;BMP280;62384;53.600;10.040;2023-07-16T11:13:31;78477.09;;;26.24
74043;BMP280;62384;53.600;10.040;2023-07-16T11:15:57;78313.13;;;25.22
74043;BMP280;62384;53.600;10.040;2023-07-16T11:18:31;78378.75;;;25.41
74043;BMP280;62384;53.600;10.040;2023-07-16T11:20:56;78259.25;;;24.75
74043;BMP280;62384;53.600;10.040;2023-07-16T11:23:22;78271.69;;;24.81
74043;BMP280;62384;53.600;10.040;2023-07-16T11:25:48;78356.53;;;25.60
74043;BMP280;62384;53.600;10.040;2023-07-16T11:28:14;78307.91;;;25.17
74043;BMP280;62384;53.600;10.040;2023-07-16T11:30:39;78240.78;;;24.76
74043;BMP280;62384;53.600;10.040;2023-07-16T11:33:12;78396.75;;;25.33
74043;BMP280;62384;53.600;10.040;2023-07-16T11:35:38;78544.34;;;26.49
74043;BMP280;62384;53.600;10.040;2023-07-16T11:38:07;78544.06;;;26.53
74043;BMP280;62384;53.600;10.040;2023-07-16T11:40:34;78474.25;;;26.31
74043;BMP280;62384;53.600;10.040;2023-07-16T11:43:10;78507.41;;;26.52
74043;BMP280;62384;53.600;10.040;2023-07-16T11:45:38;78494.06;;;26.41
74043;BMP280;62384;53.600;10.040;2023-07-16T11:48:04;78551.69;;;26.69
74043;BMP280;62384;53.600;10.040;2023-07-16T11:50:30;78655.88;;;27.31
74043;BMP280;62384;53.600;10.040;2023-07-16T11:52:59;78668.19;;;27.61
74043;BMP280;62384;53.600;10.040;2023-07-16T11:55:25;78782.94;;;28.51
74043;BMP280;62384;53.600;10.040;2023-07-16T11:57:50;78517.38;;;26.97
74043;BMP280;62384;53.600;10.040;2023-07-16T12:00:16;78347.59;;;25.57
74043;BMP280;62384;53.600;10.040;2023-07-16T12:02:42;78526.03;;;26.78
74043;BMP280;62384;53.600;10.040;2023-07-16T12:05:08;78449.28;;;26.16
74043;BMP280;62384;53.600;10.040;2023-07-16T12:07:35;78663.53;;;27.57
74043;BMP280;62384;53.600;10.040;2023-07-16T12:10:03;78613.13;;;27.23
74043;BMP280;62384;53.600;10.040;2023-07-16T12:12:29;78574.00;;;27.27
74043;BMP280;62384;53.600;10.040;2023-07-16T12:14:54;78533.69;;;27.04
74043;BMP280;62384;53.600;10.040;2023-07-16T12:17:19;78392.69;;;25.86
74043;BMP280;62384;53.600;10.040;2023-07-16T12:19:45;78350.97;;;25.33
74043;BMP280;62384;53.600;10.040;2023-07-16T12:22:10;78286.16;;;25.10
74043;BMP280;62384;53.600;10.040;2023-07-16T12:24:36;78278.88;;;25.16
74043;BMP280;62384;53.600;10.040;2023-07-16T12:27:01;78502.91;;;26.51
74043;BMP280;62384;53.600;10.040;2023-07-16T12:29:26;78634.53;;;27.48
74043;BMP280;62384;53.600;10.040;2023-07-16T12:31:51;78486.34;;;26.65
74043;BMP280;62384;53.600;10.040;2023-07-16T12:34:17;78367.97;;;25.67
74043;BMP280;62384;53.600;10.040;2023-07-16T12:36:42;78393.44;;;25.89
74043;BMP280;62384;53.600;10.040;2023-07-16T12:39:07;78392.84;;;25.89
74043;BMP280;62384;53.600;10.040;2023-07-16T12:41:33;78391.63;;;25.78
74043;BMP280;62384;53.600;10.040;2023-07-16T12:43:58;78381.09;;;25.76
74043;BMP280;62384;53.600;10.040;2023-07-16T12:46:23;78401.47;;;25.87
74043;BMP280;62384;53.600;10.040;2023-07-16T12:48:48;78327.25;;;25.29
74043;BMP280;62384;53.600;10.040;2023-07-16T12:51:14;78396.16;;;25.73
74043;BMP280;62384;53.600;10.040;2023-07-16T12:53:39;78356.88;;;25.48
74043;BMP280;62384;53.600;10.040;2023-07-16T12:56:04;78322.53;;;25.32
74043;BMP280;62384;53.600;10.040;2023-07-16T12:58:30;78285.81;;;25.05
74043;BMP280;62384;53.600;10.040;2023-07-16T13:00:55;78286.16;;;25.10
74043;BMP280;62384;53.600;10.040;2023-07-16T13:03:20;78344.53;;;25.35
74043;BMP280;62384;53.600;10.040;2023-07-16T13:05:46;78358.84;;;25.62
74043;BMP280;62384;53.600;10.040;2023-07-16T13:08:12;78433.63;;;26.36
74043;BMP280;62384;53.600;10.040;2023-07-16T13:10:39;78469.06;;;26.43
74043;BMP280;62384;53.600;10.040;2023-07-16T13:13:04;78314.72;;;25.37
74043;BMP280;62384;53.600;10.040;2023-07-16T13:15:30;78243.59;;;24.85
74043;BMP280;62384;53.600;10.040;2023-07-16T13:17:55;78286.66;;;25.01
74043;BMP280;62384;53.600;10.040;2023-07-16T13:20:21;78338.59;;;25.61
74043;BMP280;62384;53.600;10.040;2023-07-16T13:22:46;78417.19;;;26.26
74043;BMP280;62384;53.600;10.040;2023-07-16T13:25:12;78338.75;;;25.47
74043;BMP280;62384;53.600;10.040;2023-07-16T13:27:40;78348.84;;;25.51
74043;BMP280;62384;53.600;10.040;2023-07-16T13:30:06;78347.34;;;25.61
74043;BMP280;62384;53.600;10.040;2023-07-16T13:32:31;78273.94;;;25.07
74043;BMP280;62384;53.600;10.040;2023-07-16T13:34:57;78207.16;;;24.70
74043;BMP280;62384;53.600;10.040;2023-07-16T13:37:22;78176.09;;;24.46
74043;BMP280;62384;53.600;10.040;2023-07-16T13:39:47;78156.66;;;24.24
74043;BMP280;62384;53.600;10.040;2023-07-16T13:42:13;78186.91;;;24.36
74043;BMP280;62384;53.600;10.040;2023-07-16T13:44:44;78190.94;;;24.40
74043;BMP280;62384;53.600;10.040;2023-07-16T13:47:09;78226.34;;;24.80
74043;BMP280;62384;53.600;10.040;2023-07-16T13:49:34;78235.81;;;24.67
74043;BMP280;62384;53.600;10.040;2023-07-16T13:51:59;78303.19;;;25.04
74043;BMP280;62384;53.600;10.040;2023-07-16T13:54:25;78321.56;;;25.17
74043;BMP280;62384;53.600;10.040;2023-07-16T13:56:50;78273.88;;;25.14
74043;BMP280;62384;53.600;10.040;2023-07-16T13:59:18;78239.06;;;24.74